createdAt,value
2022-09-14T00:01:45.260Z,1.75
2022-09-14T00:04:17.273Z,1.55
2022-09-14T00:06:47.372Z,1.62
2022-09-14T00:09:17.828Z,2.12
2022-09-14T00:11:46.467Z,1.47
2022-09-14T00:14:15.608Z,1.23
2022-09-14T00:16:45.188Z,1.50
2022-09-14T00:19:20.142Z,1.25
2022-09-14T00:21:51.939Z,1.58
2022-09-14T00:24:20.880Z,1.73
2022-09-14T00:26:51.693Z,1.73
2022-09-14T00:29:20.789Z,1.42
2022-09-14T00:31:49.746Z,1.58
2022-09-14T00:34:20.007Z,1.67
2022-09-14T00:36:50.262Z,1.77
2022-09-14T00:39:20.027Z,1.67
2022-09-14T00:41:49.756Z,1.55
2022-09-14T00:44:59.333Z,1.50
2022-09-14T00:47:30.212Z,1.67
2022-09-14T00:50:01.430Z,1.67
2022-09-14T00:52:32.847Z,1.90
2022-09-14T00:57:33.684Z,1.67
2022-09-14T01:00:02.730Z,1.73
2022-09-14T01:02:32.334Z,1.62
2022-09-14T01:05:02.423Z,1.52
2022-09-14T01:07:40.236Z,1.60
2022-09-14T01:10:17.237Z,1.70
2022-09-14T01:12:50.640Z,1.73
2022-09-14T01:15:25.265Z,2.00
2022-09-14T01:17:59.888Z,2.03
2022-09-14T01:20:34.285Z,2.12
2022-09-14T01:23:10.125Z,1.58
2022-09-14T01:25:59.953Z,1.77
2022-09-14T01:28:33.801Z,1.92
2022-09-14T01:31:05.250Z,1.42
2022-09-14T01:33:38.166Z,1.80
2022-09-14T01:36:08.531Z,1.60
2022-09-14T01:38:40.142Z,1.90
2022-09-14T01:41:10.838Z,1.83
2022-09-14T01:43:43.032Z,1.42
2022-09-14T01:46:14.716Z,1.67
2022-09-14T01:49:02.856Z,1.37
2022-09-14T01:51:35.929Z,1.37
2022-09-14T01:54:08.789Z,1.37
2022-09-14T01:56:41.556Z,1.65
2022-09-14T01:59:15.037Z,1.60
2022-09-14T02:01:50.356Z,1.65
2022-09-14T02:04:46.269Z,1.58
2022-09-14T02:07:15.218Z,2.00
2022-09-14T02:09:44.439Z,1.83
2022-09-14T02:12:15.014Z,1.60
2022-09-14T02:14:45.732Z,1.65
2022-09-14T02:17:15.084Z,1.80
2022-09-14T02:19:48.260Z,1.52
2022-09-14T02:22:16.829Z,2.40
2022-09-14T02:24:45.989Z,1.70
2022-09-14T02:27:14.579Z,1.83
2022-09-14T02:29:43.360Z,2.03
2022-09-14T02:32:22.514Z,1.50
2022-09-14T02:34:57.695Z,1.85
2022-09-14T02:37:31.427Z,1.85
2022-09-14T02:40:06.656Z,1.67
2022-09-14T02:42:38.293Z,1.30
2022-09-14T02:45:12.460Z,1.62
2022-09-14T02:47:55.304Z,1.85
2022-09-14T02:50:28.053Z,1.37
2022-09-14T02:53:00.979Z,1.70
2022-09-14T02:55:39.397Z,1.67
2022-09-14T02:58:10.561Z,1.45
2022-09-14T03:00:40.660Z,1.85
2022-09-14T03:03:13.067Z,1.98
2022-09-14T03:05:41.952Z,1.65
2022-09-14T03:08:11.712Z,1.45
2022-09-14T03:10:43.443Z,1.67
2022-09-14T03:13:12.639Z,2.08
2022-09-14T03:15:41.655Z,1.67
2022-09-14T03:18:14.402Z,1.80
2022-09-14T03:20:46.936Z,1.60
2022-09-14T03:23:16.208Z,1.45
2022-09-14T03:25:45.778Z,2.03
2022-09-14T03:28:14.450Z,2.85
2022-09-14T03:30:43.255Z,1.50
2022-09-14T03:33:15.344Z,2.08
2022-09-14T03:35:43.917Z,2.03
2022-09-14T03:38:12.705Z,2.12
2022-09-14T03:40:41.295Z,1.90
2022-09-14T03:43:12.356Z,1.75
2022-09-14T03:45:42.377Z,2.12
2022-09-14T03:48:11.503Z,1.70
2022-09-14T03:50:41.467Z,1.65
2022-09-14T03:53:10.330Z,1.70
2022-09-14T03:55:41.250Z,1.45
2022-09-14T04:00:38.381Z,1.30
2022-09-14T04:03:07.278Z,1.48
2022-09-14T04:05:35.859Z,1.92
2022-09-14T04:08:05.882Z,1.98
2022-09-14T04:10:34.971Z,1.70
2022-09-14T04:13:04.033Z,1.48
2022-09-14T04:15:32.792Z,1.75
2022-09-14T04:18:01.695Z,1.73
2022-09-14T04:20:30.301Z,1.87
2022-09-14T04:22:58.871Z,1.67
2022-09-14T04:25:29.098Z,2.00
2022-09-14T04:28:19.057Z,1.70
2022-09-14T04:30:46.586Z,1.55
2022-09-14T04:33:15.134Z,1.40
2022-09-14T04:35:43.731Z,2.17
2022-09-14T04:38:12.526Z,1.60
2022-09-14T04:40:43.382Z,1.70
2022-09-14T04:45:40.910Z,1.40
2022-09-14T04:48:09.759Z,1.45
2022-09-14T04:50:38.774Z,1.60
2022-09-14T04:53:07.339Z,1.52
2022-09-14T04:55:37.837Z,1.27
2022-09-14T04:58:08.096Z,1.58
2022-09-14T05:00:37.368Z,2.00
2022-09-14T05:03:06.679Z,1.20
2022-09-14T05:05:36.391Z,1.65
2022-09-14T05:08:05.077Z,1.83
2022-09-14T05:10:33.911Z,1.70
2022-09-14T05:13:02.453Z,1.90
2022-09-14T05:15:32.420Z,1.83
2022-09-14T05:18:01.338Z,1.57
2022-09-14T05:20:29.907Z,1.60
2022-09-14T05:22:58.489Z,2.00
2022-09-14T05:25:27.535Z,2.65
2022-09-14T05:27:56.107Z,1.85
2022-09-14T05:30:24.725Z,1.50
2022-09-14T05:32:57.960Z,2.05
2022-09-14T05:35:26.739Z,1.95
2022-09-14T05:37:55.567Z,1.90
2022-09-14T05:40:26.376Z,1.70
2022-09-14T05:45:23.505Z,2.05
2022-09-14T05:47:52.066Z,1.92
2022-09-14T05:50:23.209Z,2.00
2022-09-14T05:52:51.767Z,1.80
2022-09-14T05:55:20.337Z,2.65
2022-09-14T05:57:50.207Z,1.45
2022-09-14T06:00:19.677Z,2.28
2022-09-14T06:02:49.339Z,2.35
2022-09-14T06:05:18.585Z,1.85
2022-09-14T06:07:52.339Z,1.87
2022-09-14T06:10:21.624Z,1.75
2022-09-14T06:12:54.802Z,1.55
2022-09-14T06:15:24.701Z,2.17
2022-09-14T06:17:53.371Z,2.00
2022-09-14T06:20:21.931Z,2.58
2022-09-14T06:22:52.176Z,2.00
2022-09-14T06:25:20.726Z,2.62
2022-09-14T06:27:49.283Z,2.05
2022-09-14T06:30:18.139Z,2.00
2022-09-14T06:32:46.726Z,1.67
2022-09-14T06:35:15.702Z,2.53
2022-09-14T06:37:44.766Z,1.90
2022-09-14T06:40:14.748Z,2.60
2022-09-14T06:42:43.439Z,2.10
2022-09-14T06:45:12.311Z,2.10
2022-09-14T06:47:40.885Z,2.60
2022-09-14T06:50:09.767Z,2.15
2022-09-14T06:52:39.613Z,1.85
2022-09-14T06:55:09.075Z,2.45
2022-09-14T06:57:42.914Z,2.37
2022-09-14T07:00:13.117Z,1.90
2022-09-14T07:02:41.771Z,2.00
2022-09-14T07:05:10.573Z,2.08
2022-09-14T07:07:39.421Z,2.33
2022-09-14T07:10:08.671Z,2.30
2022-09-14T07:12:38.572Z,1.92
2022-09-14T07:15:10.463Z,2.53
2022-09-14T07:17:39.009Z,2.80
2022-09-14T07:20:08.832Z,2.60
2022-09-14T07:22:37.707Z,3.62
2022-09-14T07:25:07.571Z,3.17
2022-09-14T07:27:39.464Z,2.25
2022-09-14T07:30:09.707Z,2.87
2022-09-14T07:32:38.237Z,2.37
2022-09-14T07:35:07.328Z,2.83
2022-09-14T07:37:36.154Z,2.72
2022-09-14T07:40:05.091Z,2.60
2022-09-14T07:42:33.668Z,3.65
2022-09-14T07:45:03.951Z,2.33
2022-09-14T07:47:32.615Z,2.58
2022-09-14T07:50:01.199Z,2.67
2022-09-14T07:52:32.801Z,2.65
2022-09-14T07:55:04.554Z,2.35
2022-09-14T07:57:54.599Z,2.60
2022-09-14T08:00:24.152Z,3.15
2022-09-14T08:02:53.860Z,2.62
2022-09-14T08:05:23.766Z,2.60
2022-09-14T08:07:55.075Z,1.87
2022-09-14T08:10:24.028Z,2.22
2022-09-14T08:12:52.920Z,2.62
2022-09-14T08:15:27.707Z,2.67
2022-09-14T08:17:56.956Z,2.50
2022-09-14T08:20:25.493Z,2.42
2022-09-14T08:22:53.939Z,2.12
2022-09-14T08:25:22.469Z,3.97
2022-09-14T08:27:51.107Z,2.55
2022-09-14T08:30:19.916Z,2.80
2022-09-14T08:32:49.747Z,2.45
2022-09-14T08:35:18.724Z,2.83
2022-09-14T08:37:52.510Z,2.42
2022-09-14T08:40:21.164Z,2.10
2022-09-14T08:42:49.860Z,1.98
2022-09-14T08:45:18.404Z,2.53
2022-09-14T08:47:47.075Z,2.65
2022-09-14T08:50:18.656Z,3.30
2022-09-14T08:52:52.885Z,2.78
2022-09-14T08:55:31.273Z,2.72
2022-09-14T08:58:07.492Z,3.00
2022-09-14T09:00:42.363Z,2.95
2022-09-14T09:03:29.671Z,3.33
2022-09-14T09:06:08.019Z,2.75
2022-09-14T09:08:50.854Z,2.50
2022-09-14T09:11:21.411Z,2.30
2022-09-14T09:13:55.632Z,2.20
2022-09-14T09:16:26.352Z,2.10
2022-09-14T09:18:59.575Z,1.95
2022-09-14T09:21:32.847Z,2.20
2022-09-14T09:24:05.768Z,3.15
2022-09-14T09:26:34.238Z,2.25
2022-09-14T09:29:05.822Z,2.70
2022-09-14T09:31:54.910Z,2.63
2022-09-14T09:34:28.131Z,2.62
2022-09-14T09:37:15.235Z,2.08
2022-09-14T09:39:44.579Z,2.05
2022-09-14T09:42:15.518Z,2.28
2022-09-14T09:45:02.469Z,2.65
2022-09-14T09:47:35.550Z,1.87
2022-09-14T09:50:06.573Z,1.90
2022-09-14T09:52:36.562Z,2.42
2022-09-14T09:55:07.123Z,1.73
2022-09-14T09:57:37.700Z,2.30
2022-09-14T10:00:13.119Z,2.08
2022-09-14T10:02:42.218Z,3.10
2022-09-14T10:05:21.328Z,1.73
2022-09-14T10:07:56.979Z,2.42
2022-09-14T10:10:40.123Z,2.55
2022-09-14T10:13:19.197Z,1.95
2022-09-14T10:15:48.978Z,2.28
2022-09-14T10:18:19.412Z,2.35
2022-09-14T10:21:07.176Z,2.35
2022-09-14T10:23:38.517Z,2.20
2022-09-14T10:26:28.773Z,2.05
2022-09-14T10:29:21.300Z,2.35
2022-09-14T10:31:51.436Z,2.10
2022-09-14T10:34:21.364Z,2.03
2022-09-14T10:36:54.939Z,2.42
2022-09-14T10:39:27.331Z,1.95
2022-09-14T10:42:02.844Z,2.00
2022-09-14T10:44:53.225Z,2.35
2022-09-14T10:47:37.558Z,1.73
2022-09-14T10:50:21.971Z,1.98
2022-09-14T10:52:58.578Z,1.75
2022-09-14T10:55:35.361Z,2.20
2022-09-14T10:58:21.325Z,2.00
2022-09-14T11:01:00.149Z,2.50
2022-09-14T11:03:42.765Z,2.40
2022-09-14T11:06:25.083Z,2.22
2022-09-14T11:08:57.529Z,2.37
2022-09-14T11:11:39.281Z,2.50
2022-09-14T11:14:24.862Z,2.30
2022-09-14T11:17:09.310Z,2.30
2022-09-14T11:19:42.904Z,1.65
2022-09-14T11:22:15.777Z,1.58
2022-09-14T11:24:47.397Z,1.70
2022-09-14T11:27:24.318Z,1.67
2022-09-14T11:29:55.645Z,1.65
2022-09-14T11:32:28.707Z,1.52
2022-09-14T11:35:01.407Z,1.65
2022-09-14T11:37:36.457Z,2.03
2022-09-14T11:40:10.687Z,2.78
2022-09-14T11:42:46.383Z,3.10
2022-09-14T11:45:20.031Z,3.58
2022-09-14T11:47:53.917Z,2.08
2022-09-14T11:50:25.307Z,3.62
2022-09-14T11:53:10.385Z,2.03
2022-09-14T11:55:43.966Z,2.45
2022-09-14T11:58:20.182Z,1.80
2022-09-14T12:01:26.745Z,1.98
2022-09-14T12:04:07.673Z,2.17
2022-09-14T12:07:00.382Z,1.77
2022-09-14T12:09:43.572Z,1.95
2022-09-14T12:12:36.661Z,1.80
2022-09-14T12:15:35.130Z,1.70
2022-09-14T12:18:22.298Z,2.65
2022-09-14T12:20:59.028Z,1.50
2022-09-14T12:23:30.672Z,1.70
2022-09-14T12:26:38.782Z,1.60
2022-09-14T12:29:26.701Z,1.37
2022-09-14T12:32:07.078Z,1.73
2022-09-14T12:34:35.663Z,1.48
2022-09-14T12:37:32.053Z,1.15
2022-09-14T12:40:38.305Z,1.42
2022-09-14T12:43:50.348Z,1.37
2022-09-14T12:46:41.859Z,1.05
2022-09-14T12:49:31.332Z,1.20
2022-09-14T12:52:05.534Z,1.10
2022-09-14T12:54:51.067Z,1.00
2022-09-14T12:57:44.548Z,1.10
2022-09-14T13:00:15.675Z,1.00
2022-09-14T13:05:23.758Z,0.88
2022-09-14T13:07:52.795Z,0.95
2022-09-14T13:10:25.313Z,1.12
2022-09-14T13:12:54.257Z,0.93
2022-09-14T13:15:26.003Z,0.82
2022-09-14T13:17:59.086Z,0.88
2022-09-14T13:20:29.992Z,0.88
2022-09-14T13:22:58.726Z,0.85
2022-09-14T13:25:34.271Z,0.90
2022-09-14T13:28:05.561Z,1.05
2022-09-14T13:30:35.595Z,0.80
2022-09-14T13:33:04.978Z,0.73
2022-09-14T13:35:37.950Z,0.90
2022-09-14T13:38:10.174Z,1.20
2022-09-14T13:40:38.913Z,0.60
2022-09-14T13:43:08.019Z,0.70
2022-09-14T13:45:37.131Z,0.77
2022-09-14T13:48:06.475Z,1.23
2022-09-14T13:50:36.773Z,1.00
2022-09-14T13:53:05.482Z,0.80
2022-09-14T13:55:45.443Z,0.52
2022-09-14T13:58:22.520Z,0.82
2022-09-14T14:00:59.702Z,0.80
2022-09-14T14:03:32.124Z,0.90
2022-09-14T14:06:06.320Z,0.80
2022-09-14T14:08:37.320Z,1.00
2022-09-14T14:11:07.659Z,0.80
2022-09-14T14:13:38.391Z,0.75
2022-09-14T14:18:56.519Z,0.93
2022-09-14T14:21:29.888Z,0.60
2022-09-14T14:24:17.908Z,0.60
2022-09-14T14:26:50.464Z,0.75
2022-09-14T14:29:19.869Z,0.60
2022-09-14T14:31:48.607Z,0.62
2022-09-14T14:34:22.759Z,0.90
2022-09-14T14:36:52.931Z,0.80
2022-09-14T14:39:22.720Z,0.70
2022-09-14T14:41:52.501Z,0.70
2022-09-14T14:44:24.240Z,0.82
2022-09-14T14:46:53.160Z,0.85
2022-09-14T14:49:21.974Z,0.80
2022-09-14T14:51:52.198Z,0.85
2022-09-14T14:54:21.340Z,0.82
2022-09-14T14:56:51.547Z,0.68
2022-09-14T14:59:29.388Z,0.85
2022-09-14T15:01:59.204Z,0.70
2022-09-14T15:04:28.215Z,0.80
2022-09-14T15:07:00.644Z,0.85
2022-09-14T15:09:32.054Z,0.68
2022-09-14T15:12:00.622Z,0.95
2022-09-14T15:14:29.424Z,0.60
2022-09-14T15:17:00.269Z,0.60
2022-09-14T15:19:29.627Z,0.70
2022-09-14T15:22:01.579Z,0.70
2022-09-14T15:24:30.962Z,1.05
2022-09-14T15:26:59.846Z,0.80
2022-09-14T15:29:28.406Z,0.70
2022-09-14T15:31:57.452Z,0.70
2022-09-14T15:34:26.095Z,0.80
2022-09-14T15:36:55.567Z,1.08
2022-09-14T15:39:27.727Z,1.00
2022-09-14T15:41:56.934Z,0.80
2022-09-14T15:44:26.102Z,1.08
2022-09-14T15:46:57.069Z,0.90
2022-09-14T15:49:26.571Z,1.20
2022-09-14T15:51:57.268Z,1.10
2022-09-14T15:54:32.677Z,1.10
2022-09-14T15:57:06.317Z,0.80
2022-09-14T15:59:35.652Z,0.80
2022-09-14T16:02:04.713Z,1.10
2022-09-14T16:04:36.480Z,1.10
2022-09-14T16:07:09.647Z,1.15
2022-09-14T16:09:41.278Z,1.15
2022-09-14T16:12:10.959Z,1.35
2022-09-14T16:14:39.883Z,1.20
2022-09-14T16:17:11.228Z,1.23
2022-09-14T16:19:40.144Z,1.25
2022-09-14T16:22:08.748Z,1.20
2022-09-14T16:24:37.324Z,1.48
2022-09-14T16:27:07.765Z,1.20
2022-09-14T16:29:36.451Z,1.30
2022-09-14T16:32:05.086Z,1.40
2022-09-14T16:34:33.962Z,1.20
2022-09-14T16:37:02.528Z,1.50
2022-09-14T16:39:31.718Z,1.00
2022-09-14T16:42:00.878Z,1.23
2022-09-14T16:44:31.217Z,1.00
2022-09-14T16:47:00.438Z,1.15
2022-09-14T16:49:29.124Z,1.30
2022-09-14T16:52:00.559Z,1.20
2022-09-14T16:54:31.650Z,1.65
2022-09-14T16:57:01.323Z,1.20
2022-09-14T16:59:31.521Z,1.17
2022-09-14T17:02:00.149Z,1.20
2022-09-14T17:04:28.810Z,1.05
2022-09-14T17:06:57.701Z,1.33
2022-09-14T17:09:28.406Z,1.75
2022-09-14T17:14:27.349Z,1.50
2022-09-14T17:16:57.661Z,1.30
2022-09-14T17:19:27.057Z,2.25
2022-09-14T17:21:55.853Z,1.48
2022-09-14T17:24:25.907Z,1.40
2022-09-14T17:26:54.812Z,1.55
2022-09-14T17:29:23.485Z,1.20
2022-09-14T17:31:55.138Z,1.10
2022-09-14T17:34:25.634Z,1.10
2022-09-14T17:36:54.267Z,1.10
2022-09-14T17:39:22.847Z,1.12
2022-09-14T17:41:51.827Z,1.25
2022-09-14T17:44:20.653Z,1.30
2022-09-14T17:46:53.025Z,1.50
2022-09-14T17:49:23.008Z,2.33
2022-09-14T17:51:53.111Z,1.25
2022-09-14T17:54:22.000Z,1.90
2022-09-14T17:56:50.644Z,1.62
2022-09-14T17:59:21.119Z,1.60
2022-09-14T18:01:50.260Z,1.42
2022-09-14T18:04:19.489Z,1.35
2022-09-14T18:06:49.621Z,1.62
2022-09-14T18:09:22.464Z,2.30
2022-09-14T18:11:52.126Z,2.12
2022-09-14T18:14:20.776Z,1.92
2022-09-14T18:16:49.571Z,2.62
2022-09-14T18:19:18.522Z,3.05
2022-09-14T18:21:52.127Z,3.28
2022-09-14T18:24:23.417Z,3.15
2022-09-14T18:26:52.470Z,2.72
2022-09-14T18:29:23.432Z,2.80
2022-09-14T18:31:52.754Z,2.67
2022-09-14T18:34:22.501Z,2.37
2022-09-14T18:36:52.405Z,2.65
2022-09-14T18:39:23.009Z,2.47
2022-09-14T18:41:53.769Z,2.60
2022-09-14T18:46:52.575Z,2.10
2022-09-14T18:49:24.096Z,2.00
2022-09-14T18:51:53.067Z,1.98
2022-09-14T18:54:27.601Z,2.40
2022-09-14T18:56:57.141Z,3.05
2022-09-14T18:59:26.964Z,3.08
2022-09-14T19:01:55.647Z,3.50
2022-09-14T19:04:24.865Z,2.90
2022-09-14T19:06:53.931Z,2.80
2022-09-14T19:09:26.821Z,3.08
2022-09-14T19:11:56.248Z,2.95
2022-09-14T19:14:25.347Z,2.45
2022-09-14T19:16:57.736Z,2.20
2022-09-14T19:19:27.014Z,2.50
2022-09-14T19:21:56.563Z,2.50
2022-09-14T19:24:31.073Z,2.20
2022-09-14T19:27:00.317Z,2.75
2022-09-14T19:29:30.010Z,2.25
2022-09-14T19:31:58.927Z,2.42
2022-09-14T19:34:29.149Z,2.47
2022-09-14T19:36:58.131Z,2.75
2022-09-14T19:39:28.639Z,3.12
2022-09-14T19:41:57.580Z,2.50
2022-09-14T19:44:26.661Z,2.30
2022-09-14T19:46:55.553Z,4.32
2022-09-14T19:49:27.243Z,5.62
2022-09-14T19:51:56.915Z,6.07
2022-09-14T19:54:25.914Z,4.80
2022-09-14T19:56:56.221Z,6.75
2022-09-14T19:59:25.702Z,3.35
2022-09-14T20:01:54.830Z,2.78
2022-09-14T20:04:24.132Z,2.50
2022-09-14T20:06:53.078Z,2.65
2022-09-14T20:09:23.765Z,3.30
2022-09-14T20:14:25.238Z,2.58
2022-09-14T20:16:55.972Z,2.90
2022-09-14T20:19:26.604Z,3.03
2022-09-14T20:21:56.227Z,3.12
2022-09-14T20:24:26.820Z,2.45
2022-09-14T20:26:57.352Z,2.72
2022-09-14T20:29:29.386Z,2.08
2022-09-14T20:31:58.595Z,2.87
2022-09-14T20:34:27.178Z,2.20
2022-09-14T20:36:56.510Z,2.37
2022-09-14T20:39:25.488Z,2.80
2022-09-14T20:41:54.338Z,2.17
2022-09-14T20:44:23.322Z,2.20
2022-09-14T20:46:53.672Z,2.28
2022-09-14T20:49:23.534Z,1.77
2022-09-14T20:51:54.357Z,2.00
2022-09-14T20:54:23.715Z,2.00
2022-09-14T20:56:52.656Z,1.80
2022-09-14T20:59:22.861Z,2.15
2022-09-14T21:01:53.692Z,1.98
2022-09-14T21:04:24.409Z,2.10
2022-09-14T21:06:55.306Z,1.98
2022-09-14T21:09:25.469Z,1.85
2022-09-14T21:11:54.415Z,1.80
2022-09-14T21:14:23.486Z,2.78
2022-09-14T21:16:56.760Z,2.00
2022-09-14T21:19:28.010Z,2.20
2022-09-14T21:21:57.300Z,2.05
2022-09-14T21:24:26.265Z,1.50
2022-09-14T21:26:55.026Z,1.60
2022-09-14T21:29:24.673Z,1.85
2022-09-14T21:31:54.999Z,1.83
2022-09-14T21:34:26.265Z,1.52
2022-09-14T21:36:54.831Z,1.83
2022-09-14T21:39:27.286Z,2.05
2022-09-14T21:41:59.095Z,2.20
2022-09-14T21:44:31.921Z,2.35
2022-09-14T21:47:02.525Z,1.98
2022-09-14T21:49:31.296Z,1.80
2022-09-14T21:51:59.977Z,2.40
2022-09-14T21:54:29.175Z,1.77
2022-09-14T21:56:57.736Z,1.83
2022-09-14T21:59:26.448Z,1.52
2022-09-14T22:01:55.345Z,1.80
2022-09-14T22:04:26.909Z,1.67
2022-09-14T22:09:28.844Z,1.57
2022-09-14T22:11:58.054Z,1.42
2022-09-14T22:14:28.668Z,2.12
2022-09-14T22:16:57.417Z,1.60
2022-09-14T22:19:29.461Z,1.50
2022-09-14T22:21:58.391Z,1.62
2022-09-14T22:24:37.045Z,1.58
2022-09-14T22:27:08.336Z,1.90
2022-09-14T22:29:37.735Z,1.77
2022-09-14T22:32:07.256Z,1.80
2022-09-14T22:34:37.898Z,2.00
2022-09-14T22:37:06.704Z,1.60
2022-09-14T22:39:35.396Z,1.52
2022-09-14T22:42:04.531Z,1.62
2022-09-14T22:44:33.090Z,1.52
2022-09-14T22:47:01.685Z,1.40
2022-09-14T22:49:30.852Z,1.50
2022-09-14T22:52:00.797Z,1.23
2022-09-14T22:54:29.345Z,1.50
2022-09-14T22:56:58.290Z,1.30
2022-09-14T22:59:26.920Z,1.50
2022-09-14T23:01:55.540Z,1.30
2022-09-14T23:04:24.604Z,1.50
2022-09-14T23:06:53.177Z,1.20
2022-09-14T23:09:23.340Z,1.35
2022-09-14T23:11:56.084Z,1.25
2022-09-14T23:14:24.767Z,1.37
2022-09-14T23:16:53.677Z,1.27
2022-09-14T23:19:22.322Z,0.90
2022-09-14T23:21:50.934Z,1.12
2022-09-14T23:24:19.804Z,1.30
2022-09-14T23:26:49.854Z,2.05
2022-09-14T23:29:18.635Z,1.17
2022-09-14T23:31:47.562Z,1.23
2022-09-14T23:34:16.780Z,1.08
2022-09-14T23:36:45.408Z,2.17
2022-09-14T23:39:14.526Z,1.23
2022-09-14T23:41:43.280Z,1.35
2022-09-14T23:44:13.521Z,1.45
2022-09-14T23:46:42.779Z,1.30
2022-09-14T23:49:12.493Z,1.30
2022-09-14T23:51:41.201Z,1.42
2022-09-14T23:54:10.595Z,1.33
2022-09-14T23:56:41.915Z,1.23
2022-09-14T23:59:13.963Z,2.05
